createdAt,value
2018-09-26T21:32:50.241Z,0.00
2018-09-26T21:33:50.099Z,0.00
2018-09-26T21:35:43.019Z,0.00
2018-09-26T21:36:43.033Z,0.00
2018-09-26T21:38:36.230Z,0.00
2018-09-26T21:39:35.966Z,0.00
2018-09-26T21:41:28.897Z,0.00
2018-09-26T21:42:28.914Z,0.00
2018-09-26T21:44:21.956Z,0.00
2018-09-26T21:45:21.827Z,0.00
2018-09-26T21:47:14.810Z,0.00
2018-09-26T21:49:27.911Z,0.00
2018-09-26T21:50:27.826Z,0.00
2018-09-26T21:52:20.743Z,0.00
2018-09-26T21:53:20.855Z,0.00
2018-09-26T21:55:14.003Z,0.00
2018-09-26T21:56:13.756Z,0.00
2018-09-26T21:58:06.676Z,0.00
2018-09-26T21:59:06.691Z,0.00
2018-09-26T22:00:59.730Z,0.00
2018-09-26T22:01:59.629Z,0.00
2018-09-26T22:03:52.619Z,0.00
2018-09-26T22:04:52.554Z,0.00
2018-09-26T22:06:45.623Z,0.00
2018-09-26T22:07:45.490Z,0.00
2018-09-26T22:09:38.990Z,0.00
2018-09-26T22:10:38.437Z,0.00
2018-09-26T22:12:31.475Z,0.00
2018-09-26T22:13:31.363Z,0.00
2018-09-26T22:15:24.334Z,0.00
2018-09-26T22:16:24.310Z,0.00
2018-09-26T22:18:17.497Z,0.00
2018-09-26T22:19:17.242Z,0.00
2018-09-26T22:21:10.082Z,0.00
2018-09-26T22:22:10.099Z,0.00
2018-09-26T22:24:03.312Z,0.00
2018-09-26T22:25:03.077Z,0.00
2018-09-26T22:26:55.958Z,0.00
2018-09-26T22:27:55.977Z,0.00
2018-09-26T22:29:49.225Z,0.00
2018-09-26T22:30:48.916Z,0.00
2018-09-26T22:32:41.828Z,0.00
2018-09-26T22:33:41.844Z,0.00
2018-09-26T22:35:35.070Z,0.00
2018-09-26T22:36:34.797Z,0.00
2018-09-26T22:38:27.706Z,0.00
2018-09-26T22:39:27.720Z,0.00
2018-09-26T22:41:20.895Z,0.00
2018-09-26T22:42:20.655Z,0.00
2018-09-26T22:44:13.572Z,0.00
2018-09-26T22:45:13.594Z,4.00
2018-09-26T22:47:06.768Z,4.00
2018-09-26T22:48:06.523Z,4.00
2018-09-26T22:49:59.468Z,4.00
2018-09-26T22:50:59.466Z,4.00
2018-09-26T22:52:52.432Z,4.00
2018-09-26T22:53:52.393Z,4.00
2018-09-26T22:55:45.312Z,4.00
2018-09-26T22:56:45.337Z,8.00
2018-09-26T22:58:38.515Z,8.00
2018-09-26T22:59:38.278Z,8.00
2018-09-26T23:01:31.180Z,8.00
2018-09-26T23:02:31.195Z,12.00
2018-09-26T23:04:24.463Z,8.00
2018-09-26T23:05:24.176Z,8.00
2018-09-26T23:07:17.167Z,4.00
2018-09-26T23:08:17.110Z,8.00
2018-09-26T23:10:10.327Z,4.00
2018-09-26T23:11:10.041Z,4.00
2018-09-26T23:13:02.968Z,12.00
2018-09-26T23:14:02.985Z,12.00
2018-09-26T23:15:56.238Z,20.00
2018-09-26T23:16:55.950Z,20.00
2018-09-26T23:18:48.895Z,20.00
2018-09-26T23:19:48.924Z,20.00
2018-09-26T23:21:42.088Z,20.00
2018-09-26T23:22:41.868Z,20.00
2018-09-26T23:24:34.788Z,20.00
2018-09-26T23:25:34.780Z,16.00
2018-09-26T23:27:27.969Z,16.00
2018-09-26T23:28:27.731Z,20.00
2018-09-26T23:30:20.649Z,16.00
2018-09-26T23:31:20.658Z,20.00
2018-09-26T23:33:13.829Z,20.00
2018-09-26T23:34:13.609Z,20.00
2018-09-26T23:36:06.483Z,20.00
2018-09-26T23:37:06.501Z,24.00
2018-09-26T23:39:00.751Z,28.00
2018-09-26T23:39:59.433Z,32.00
2018-09-26T23:41:52.545Z,36.00
2018-09-26T23:42:52.585Z,40.00
2018-09-26T23:44:45.751Z,32.00
2018-09-26T23:45:45.509Z,36.00
2018-09-26T23:47:38.449Z,36.00
2018-09-26T23:48:38.446Z,36.00
2018-09-26T23:50:31.680Z,32.00
2018-09-26T23:51:31.396Z,32.00
2018-09-26T23:53:24.316Z,40.00
2018-09-26T23:54:24.318Z,40.00
2018-09-26T23:56:17.508Z,48.00
2018-09-26T23:57:17.261Z,56.00
2018-09-26T23:59:10.156Z,64.00
